Time;durP1;ratioP1;P1;durP2;ratioP2;P2;SDS_P1;SDS_P2;PMS_P1;PMS_P2;Temp;Humidity;BMP_temperature;BMP_pressure;BME280_temperature;BME280_humidity;BME280_pressure;Samples;Min_cycle;Max_cycle;Signal;HPM_P1;HPM_P2
2021/04/15 00:00:34;;;;;;;11.95;6.65;;;;;;;4.19;70.62;100581.47;5077153;28;20047;-74
2021/04/15 00:03:14;;;;;;;11.25;7.38;;;;;;;4.12;70.71;100586.06;5094502;28;20400;-73
2021/04/15 00:05:40;;;;;;;12.45;7.22;;;;;;;4.19;70.20;100582.34;5094814;28;20028;-74
2021/04/15 00:08:07;;;;;;;12.40;8.20;;;;;;;3.58;71.18;100509.31;5094717;28;20115;-73
2021/04/15 00:10:42;;;;;;;12.55;7.43;;;;;;;4.05;70.76;100573.06;5094284;28;20357;-74
2021/04/15 00:13:18;;;;;;;11.82;7.18;;;;;;;4.12;70.79;100572.84;5094847;28;20040;-73
2021/04/15 00:15:44;;;;;;;14.80;7.68;;;;;;;3.95;71.02;100551.34;5076681;28;20463;-73
2021/04/15 00:18:09;;;;;;;12.82;7.57;;;;;;;4.01;71.57;100573.16;5059907;28;20058;-74
2021/04/15 00:20:35;;;;;;;11.60;8.32;;;;;;;3.99;71.38;100575.00;5094446;28;20039;-74
2021/04/15 00:23:00;;;;;;;13.15;7.82;;;;;;;3.88;71.85;100553.31;5094698;28;20081;-75
2021/04/15 00:25:26;;;;;;;11.63;8.23;;;;;;;4.09;71.18;100564.16;5094208;28;20043;-75
2021/04/15 00:27:53;;;;;;;12.93;8.07;;;;;;;4.06;71.56;100569.53;5076727;28;20043;-74
2021/04/15 00:30:20;;;;;;;13.60;7.93;;;;;;;4.02;71.79;100568.75;5076132;28;20040;-76
2021/04/15 00:32:46;;;;;;;12.70;8.48;;;;;;;4.01;72.11;100564.38;5094483;28;20032;-77
2021/04/15 00:35:12;;;;;;;14.32;8.38;;;;;;;3.94;72.51;100561.03;5094502;28;20162;-77
2021/04/15 00:37:37;;;;;;;15.35;8.60;;;;;;;4.02;72.49;100561.69;5075945;28;20770;-78
2021/04/15 00:40:05;;;;;;;13.05;7.85;;;;;;;4.00;72.67;100566.16;5094357;28;20039;-77
2021/04/15 00:42:30;;;;;;;13.02;8.25;;;;;;;4.03;72.16;100560.78;5093523;28;20044;-76
2021/04/15 00:45:05;;;;;;;13.32;8.05;;;;;;;3.82;72.52;100540.28;5094169;28;20032;-76
2021/04/15 00:47:31;;;;;;;11.65;8.00;;;;;;;3.92;72.75;100546.16;5075283;28;20081;-78
2021/04/15 00:49:59;;;;;;;12.85;8.50;;;;;;;3.82;73.18;100545.56;5059524;28;20044;-79
2021/04/15 00:52:32;;;;;;;12.32;8.70;;;;;;;3.96;73.07;100567.16;5093842;28;20028;-78
2021/04/15 00:55:13;;;;;;;11.87;8.00;;;;;;;3.99;72.91;100560.94;5075963;28;20035;-77
2021/04/15 00:57:40;;;;;;;12.75;8.50;;;;;;;3.95;73.53;100568.03;5093461;28;20025;-74
2021/04/15 01:00:10;;;;;;;14.00;8.25;;;;;;;3.93;73.38;100561.09;5075980;28;20028;-75
2021/04/15 01:02:37;;;;;;;12.30;8.45;;;;;;;3.81;73.62;100538.56;5092839;28;20040;-74
2021/04/15 01:05:33;;;;;;;13.57;8.50;;;;;;;3.81;73.47;100549.09;5075866;28;20047;-75
2021/04/15 01:07:59;;;;;;;13.80;8.43;;;;;;;3.88;73.92;100566.50;5093940;28;20032;-75
2021/04/15 01:10:28;;;;;;;12.77;8.50;;;;;;;3.92;74.12;100567.28;5075343;28;20044;-75
2021/04/15 01:13:19;;;;;;;14.02;8.57;;;;;;;3.79;74.37;100558.84;5093910;28;20578;-74
2021/04/15 01:16:07;;;;;;;12.82;8.27;;;;;;;3.84;74.40;100564.84;5093580;28;20058;-75
2021/04/15 01:18:57;;;;;;;13.55;8.38;;;;;;;3.78;74.51;100565.03;5093399;28;20052;-74
2021/04/15 01:21:38;;;;;;;11.80;7.78;;;;;;;3.84;74.43;100559.56;5093145;28;20107;-74
2021/04/15 01:24:21;;;;;;;14.85;8.23;;;;;;;3.83;74.45;100557.84;5093232;28;20119;-76
2021/04/15 01:26:52;;;;;;;13.63;8.52;;;;;;;3.83;74.61;100552.56;5093704;28;20161;-76
2021/04/15 01:29:17;;;;;;;12.40;8.02;;;;;;;3.90;74.29;100553.25;5075322;28;20036;-78
2021/04/15 01:31:58;;;;;;;12.73;7.85;;;;;;;3.55;74.37;100497.06;5092917;28;20031;-78
2021/04/15 01:34:31;;;;;;;12.57;7.93;;;;;;;3.83;74.14;100552.56;5093261;28;20471;-78
2021/04/15 01:36:59;;;;;;;18.47;8.43;;;;;;;3.86;74.88;100552.50;5093272;28;20389;-77
2021/04/15 01:39:33;;;;;;;12.45;8.05;;;;;;;3.80;74.74;100546.50;5092684;28;20320;-76
2021/04/15 01:42:12;;;;;;;13.25;8.13;;;;;;;3.81;75.03;100550.88;5093360;28;20024;-76
2021/04/15 01:44:53;;;;;;;12.77;7.22;;;;;;;3.73;74.64;100540.53;5092648;28;20044;-74
2021/04/15 01:47:27;;;;;;;14.65;8.18;;;;;;;3.75;74.47;100522.88;5093147;28;20385;-76
2021/04/15 01:50:02;;;;;;;15.80;8.63;;;;;;;3.80;74.65;100547.38;5075244;28;20035;-75
2021/04/15 01:52:31;;;;;;;13.52;7.10;;;;;;;3.80;74.47;100547.38;5074720;28;20024;-75
2021/04/15 01:55:06;;;;;;;12.65;7.50;;;;;;;3.53;75.34;100505.91;5093433;28;20035;-74
2021/04/15 01:58:01;;;;;;;14.43;8.30;;;;;;;3.83;75.01;100547.28;5093388;28;20111;-74
2021/04/15 02:00:30;;;;;;;13.77;8.07;;;;;;;3.82;75.40;100544.69;5085222;28;20496;-74
2021/04/15 02:03:11;;;;;;;12.10;7.35;;;;;;;3.59;75.70;100514.53;5097090;28;20161;-74
2021/04/15 02:05:39;;;;;;;13.05;7.90;;;;;;;3.87;75.38;100542.81;5097099;28;20031;-75
2021/04/15 02:08:19;;;;;;;12.35;8.13;;;;;;;3.79;75.19;100542.16;5097260;28;20024;-75
2021/04/15 02:10:58;;;;;;;12.85;7.85;;;;;;;3.81;75.60;100549.09;5096673;28;20035;-78
2021/04/15 02:13:26;;;;;;;12.80;8.05;;;;;;;3.79;75.40;100540.38;5097036;28;20436;-78
2021/04/15 02:15:57;;;;;;;13.70;7.78;;;;;;;3.85;74.88;100547.22;5096782;28;20048;-77
2021/04/15 02:18:32;;;;;;;10.88;7.07;;;;;;;3.84;75.09;100543.72;5096947;28;20027;-78
2021/04/15 02:21:03;;;;;;;11.32;7.50;;;;;;;3.79;75.24;100544.78;5097080;28;20024;-78
2021/04/15 02:23:36;;;;;;;12.50;7.53;;;;;;;3.85;74.68;100534.91;5096244;28;20036;-77
2021/04/15 02:26:08;;;;;;;11.52;7.10;;;;;;;3.74;74.85;100515.88;5096830;28;20476;-77
2021/04/15 02:28:59;;;;;;;11.05;7.78;;;;;;;3.85;75.20;100540.19;5078436;28;20465;-78
2021/04/15 02:31:30;;;;;;;12.23;7.30;;;;;;;3.71;75.00;100515.97;5096617;28;20117;-78
2021/04/15 02:34:34;;;;;;;12.23;7.35;;;;;;;3.81;75.24;100538.56;5096832;28;20109;-75
2021/04/15 02:37:06;;;;;;;;;;;;;;;3.89;75.17;100546.25;5079099;28;20035;-76
2021/04/15 02:39:41;;;;;;;12.20;7.30;;;;;;;3.98;74.58;100546.88;5096112;28;19912;-76
2021/04/15 02:42:11;;;;;;;11.35;6.80;;;;;;;3.80;74.94;100539.47;5096490;28;20065;-75
2021/04/15 02:44:49;;;;;;;15.48;7.55;;;;;;;3.85;75.19;100545.47;5077898;28;20024;-76
2021/04/15 02:47:21;;;;;;;11.90;7.35;;;;;;;3.73;74.80;100525.56;5096601;28;20036;-75
2021/04/15 02:49:51;;;;;;;13.90;8.25;;;;;;;3.83;75.10;100544.66;5095935;28;20035;-74
2021/04/15 02:52:22;;;;;;;13.25;7.43;;;;;;;3.71;74.99;100514.19;5096436;28;20358;-77
2021/04/15 02:54:52;;;;;;;11.27;7.22;;;;;;;3.86;74.96;100549.84;5096127;28;20052;-76
2021/04/15 02:57:22;;;;;;;10.73;7.35;;;;;;;3.87;75.48;100548.09;5096451;28;20035;-77
2021/04/15 03:00:11;;;;;;;11.27;7.13;;;;;;;3.74;75.05;100519.38;5095936;28;20028;-75
2021/04/15 03:02:46;;;;;;;13.35;7.28;;;;;;;3.87;75.28;100548.09;5094816;28;20032;-75
2021/04/15 03:05:23;;;;;;;11.25;6.45;;;;;;;3.67;75.30;100525.75;5096002;28;20036;-75
2021/04/15 03:07:53;;;;;;;12.57;7.40;;;;;;;3.90;74.81;100563.81;5095706;28;20024;-74
2021/04/15 03:10:24;;;;;;;13.10;7.00;;;;;;;3.84;75.43;100549.00;5095995;28;20040;-76
2021/04/15 03:13:04;;;;;;;12.15;7.38;;;;;;;3.80;74.75;100531.53;5095827;28;20461;-75
2021/04/15 03:15:33;;;;;;;12.50;7.43;;;;;;;3.95;75.11;100553.97;5095955;28;20131;-74
2021/04/15 03:18:13;;;;;;;10.43;6.45;;;;;;;3.77;74.99;100531.66;5095746;28;20071;-75
2021/04/15 03:20:46;;;;;;;12.07;7.45;;;;;;;3.86;75.38;100560.41;5095291;28;20031;-74
2021/04/15 03:23:33;;;;;;;13.38;8.15;;;;;;;3.79;75.90;100556.19;5096010;28;20375;-75
2021/04/15 03:26:06;;;;;;;11.85;6.75;;;;;;;3.62;75.32;100525.00;5095781;28;20553;-76
2021/04/15 03:28:39;;;;;;;12.85;7.72;;;;;;;3.67;75.18;100530.16;5077505;28;20373;-76
2021/04/15 03:31:14;;;;;;;10.85;7.25;;;;;;;3.76;75.90;100561.53;5077843;28;20100;-78
2021/04/15 03:33:45;;;;;;;11.15;7.35;;;;;;;3.73;76.01;100551.94;5060497;28;20126;-74
2021/04/15 03:36:21;;;;;;;14.07;7.07;;;;;;;3.76;75.86;100551.00;5095782;28;20058;-76
2021/04/15 03:39:12;;;;;;;12.32;7.43;;;;;;;3.85;75.96;100549.88;5094893;28;20028;-77
2021/04/15 03:41:45;;;;;;;11.13;7.50;;;;;;;3.78;76.70;100557.13;5083334;28;20036;-77
2021/04/15 03:44:17;;;;;;;;;;;;;;;3.79;76.58;100561.47;5077777;28;20161;-76
2021/04/15 03:46:54;;;;;;;11.52;7.30;;;;;;;3.33;76.53;100488.00;5095141;28;19916;-76
2021/04/15 03:49:32;;;;;;;14.30;7.05;;;;;;;3.38;76.79;100500.16;5095419;28;20042;-77
2021/04/15 03:52:03;;;;;;;12.48;7.35;;;;;;;3.77;76.67;100560.66;5095701;28;20533;-75
2021/04/15 03:54:41;;;;;;;13.93;7.72;;;;;;;3.71;76.80;100566.09;5095275;28;20024;-75
2021/04/15 03:57:14;;;;;;;11.23;7.40;;;;;;;3.52;77.61;100531.44;5095347;28;20469;-73
2021/04/15 04:00:07;;;;;;;13.93;7.90;;;;;;;3.72;77.65;100557.28;5094725;28;20031;-75
2021/04/15 04:02:38;;;;;;;12.45;7.68;;;;;;;3.73;77.88;100566.91;5083853;28;20044;-75
2021/04/15 04:05:11;;;;;;;12.48;8.02;;;;;;;3.68;78.16;100569.69;5095192;28;20054;-75
2021/04/15 04:07:42;;;;;;;13.07;8.48;;;;;;;3.71;77.67;100561.69;5094977;28;20076;-75
2021/04/15 04:10:14;;;;;;;9.68;6.38;;;;;;;3.53;77.59;100533.16;5095155;28;20373;-75
2021/04/15 04:13:08;;;;;;;12.48;8.02;;;;;;;3.66;78.23;100562.69;5094349;28;20024;-74
2021/04/15 04:15:40;;;;;;;11.75;8.13;;;;;;;3.63;77.90;100549.59;5057500;28;20131;-75
2021/04/15 04:18:29;;;;;;;11.55;7.85;;;;;;;3.70;77.68;100561.72;5094732;28;20032;-74
2021/04/15 04:21:03;;;;;;;13.75;8.55;;;;;;;3.68;78.08;100559.13;5093628;28;20500;-73
2021/04/15 04:23:42;;;;;;;11.52;8.30;;;;;;;3.59;77.48;100542.69;5094409;28;20056;-74
2021/04/15 04:26:19;;;;;;;11.93;8.30;;;;;;;3.60;77.75;100544.41;5094652;28;20032;-75
2021/04/15 04:29:26;;;;;;;14.32;8.90;;;;;;;3.83;77.09;100571.03;5094219;28;20035;-74
2021/04/15 04:31:58;;;;;;;12.20;7.95;;;;;;;3.69;77.07;100544.16;5093208;28;20048;-73
2021/04/15 04:34:25;;;;;;;15.77;8.52;;;;;;;3.75;77.19;100557.19;5094226;28;20397;-75
2021/04/15 04:36:53;;;;;;;11.75;7.13;;;;;;;3.69;77.21;100570.56;5076016;28;20538;-74
2021/04/15 04:39:21;;;;;;;12.82;8.85;;;;;;;3.61;76.86;100556.69;5076073;28;20032;-73
2021/04/15 04:41:52;;;;;;;15.25;8.85;;;;;;;3.53;77.43;100542.84;5094127;28;20024;-77
2021/04/15 04:44:25;;;;;;;12.13;7.93;;;;;;;3.79;76.88;100581.72;5075944;28;20035;-77
2021/04/15 04:47:01;;;;;;;12.77;8.45;;;;;;;3.74;77.58;100569.50;5075919;28;20449;-77
2021/04/15 04:49:34;;;;;;;11.48;7.78;;;;;;;3.66;76.71;100557.44;5094254;28;20437;-73
2021/04/15 04:52:07;;;;;;;13.07;8.27;;;;;;;3.73;77.21;100577.47;5094182;28;20024;-74
2021/04/15 04:54:37;;;;;;;12.55;8.82;;;;;;;3.77;77.40;100580.91;5094114;28;20054;-76
2021/04/15 04:57:18;;;;;;;14.13;8.98;;;;;;;3.80;77.00;100584.31;5075879;28;20477;-76
2021/04/15 05:00:16;;;;;;;12.02;8.48;;;;;;;3.90;76.42;100596.34;5086842;28;20573;-74
2021/04/15 05:02:42;;;;;;;14.50;9.00;;;;;;;3.50;76.92;100529.75;5095689;28;20043;-76
2021/04/15 05:05:14;;;;;;;13.23;9.40;;;;;;;3.75;77.24;100570.38;5114507;28;20430;-76
2021/04/15 05:07:42;;;;;;;12.13;7.88;;;;;;;3.81;76.48;100569.34;5113604;28;20035;-74
2021/04/15 05:10:17;;;;;;;12.50;6.20;;;;;;;3.74;77.27;100579.19;5096005;28;20031;-76
2021/04/15 05:12:43;;;;;;;14.98;9.57;;;;;;;3.73;76.73;100562.50;5113918;28;20024;-77
2021/04/15 05:15:09;;;;;;;17.33;10.45;;;;;;;3.96;76.22;100593.56;5072915;28;20530;-71
2021/04/15 05:17:37;;;;;;;13.05;9.15;;;;;;;4.02;76.24;100590.72;5107723;28;20444;-74
2021/04/15 05:20:11;;;;;;;13.75;9.02;;;;;;;4.02;75.65;100585.44;5095405;28;20080;-72
2021/04/15 05:22:42;;;;;;;15.25;10.45;;;;;;;4.09;76.38;100587.94;5114003;28;20032;-78
2021/04/15 05:25:16;;;;;;;13.82;9.38;;;;;;;4.03;75.29;100563.41;5086329;28;20027;-73
2021/04/15 05:27:42;;;;;;;16.15;10.20;;;;;;;4.06;75.91;100586.25;5100464;28;20514;-73
2021/04/15 05:30:17;;;;;;;14.18;9.40;;;;;;;4.16;74.99;100578.94;5067180;28;20024;-71
2021/04/15 05:32:46;;;;;;;16.17;9.73;;;;;;;4.03;75.13;100552.84;5101291;28;20023;-71
2021/04/15 05:35:25;;;;;;;14.90;9.35;;;;;;;4.23;75.30;100576.03;5105136;28;20024;-70
2021/04/15 05:37:52;;;;;;;14.65;9.52;;;;;;;4.45;74.25;100593.94;5112974;28;20464;-68
2021/04/15 05:40:19;;;;;;;14.88;9.60;;;;;;;4.44;74.63;100582.50;5095510;28;20051;-73
2021/04/15 05:42:51;;;;;;;16.10;9.93;;;;;;;4.62;74.88;100585.47;5091177;28;20032;-73
2021/04/15 05:45:24;;;;;;;14.57;9.67;;;;;;;4.72;73.54;100552.56;5075085;28;20036;-72
2021/04/15 05:48:01;;;;;;;15.48;9.30;;;;;;;4.86;73.29;100582.09;5073842;28;20032;-72
2021/04/15 05:50:40;;;;;;;15.25;9.02;;;;;;;4.95;72.57;100584.44;5092087;28;20119;-73
2021/04/15 05:53:18;;;;;;;14.50;9.20;;;;;;;4.93;72.33;100586.28;5074059;28;20124;-73
2021/04/15 05:55:55;;;;;;;14.10;8.25;;;;;;;4.94;72.34;100587.13;5092031;28;20040;-75
2021/04/15 05:58:35;;;;;;;13.57;8.55;;;;;;;5.04;72.32;100588.56;5091820;28;20381;-77
2021/04/15 06:01:23;;;;;;;11.73;7.95;;;;;;;5.13;71.90;100583.84;5073639;28;20427;-73
2021/04/15 06:04:14;;;;;;;12.85;8.98;;;;;;;5.25;72.43;100587.88;5090960;28;20036;-74
2021/04/15 06:06:41;;;;;;;11.60;8.40;;;;;;;5.23;70.88;100579.13;5096062;28;20039;-73
2021/04/15 06:09:08;;;;;;;10.98;7.57;;;;;;;5.38;70.09;100578.59;5111749;28;20036;-72
2021/04/15 06:12:05;;;;;;;14.65;8.38;;;;;;;5.42;70.68;100574.09;5069820;28;20493;-78
2021/04/15 06:14:30;;;;;;;12.77;8.23;;;;;;;5.34;71.32;100581.41;5078908;28;20036;-82
2021/04/15 06:17:23;;;;;;;12.30;8.23;;;;;;;5.39;70.67;100574.16;5092565;28;20051;-78
2021/04/15 06:19:53;;;;;;;12.02;8.20;;;;;;;5.33;71.84;100569.09;5092229;28;20473;-77
2021/04/15 06:22:31;;;;;;;11.80;7.65;;;;;;;5.13;72.32;100578.56;5073962;28;20063;-78
2021/04/15 06:25:12;;;;;;;13.93;8.35;;;;;;;5.12;70.95;100576.84;5092505;28;20553;-77
2021/04/15 06:27:38;;;;;;;14.07;8.95;;;;;;;4.86;71.95;100542.44;5093230;28;20026;-78
2021/04/15 06:30:16;;;;;;;13.52;8.10;;;;;;;5.07;71.05;100552.31;5092058;28;20048;-78
2021/04/15 06:32:59;;;;;;;12.27;8.25;;;;;;;5.27;70.94;100577.22;5092740;28;20412;-78
2021/04/15 06:35:28;;;;;;;14.15;8.40;;;;;;;4.98;72.15;100573.75;5092279;28;20477;-77
2021/04/15 06:38:03;;;;;;;11.70;7.15;;;;;;;4.80;72.25;100542.63;5092447;28;20040;-77
2021/04/15 06:40:35;;;;;;;12.20;7.72;;;;;;;5.05;71.52;100574.44;5074662;28;20032;-77
2021/04/15 06:43:22;;;;;;;13.05;7.78;;;;;;;5.20;70.62;100567.78;5092131;28;20051;-77
2021/04/15 06:45:52;;;;;;;13.63;7.78;;;;;;;4.85;72.47;100569.78;5096451;28;20396;-77
2021/04/15 06:48:36;;;;;;;10.38;7.05;;;;;;;4.81;72.20;100568.13;5077992;28;20028;-77
2021/04/15 06:51:22;;;;;;;8.10;5.15;;;;;;;4.92;72.15;100566.00;5096449;28;20381;-79
2021/04/15 06:54:16;;;;;;;13.88;7.57;;;;;;;4.71;71.99;100546.41;5096436;28;20036;-77
2021/04/15 06:57:00;;;;;;;12.45;7.75;;;;;;;4.84;72.25;100571.56;5096559;28;20028;-78
2021/04/15 06:59:53;;;;;;;11.35;7.10;;;;;;;5.04;71.26;100570.94;5078463;28;20392;-78
2021/04/15 07:02:56;;;;;;;9.18;5.80;;;;;;;5.14;71.35;100569.72;5096103;28;20032;-77
2021/04/15 07:05:29;;;;;;;11.07;7.20;;;;;;;5.18;71.16;100573.97;5095870;28;20024;-77
2021/04/15 07:08:41;;;;;;;10.48;7.57;;;;;;;5.02;70.37;100551.63;5096620;28;20032;-78
2021/04/15 07:11:40;;;;;;;11.85;6.78;;;;;;;4.88;71.19;100556.47;5023485;28;20060;-77
2021/04/15 07:14:25;;;;;;;14.05;7.53;;;;;;;5.01;71.23;100563.06;5095799;28;20028;-77
2021/04/15 07:17:30;;;;;;;11.38;7.95;;;;;;;5.16;71.27;100575.81;5078030;28;20052;-77
2021/04/15 07:20:07;;;;;;;11.77;6.70;;;;;;;5.07;71.63;100578.75;5066836;28;20389;-77
2021/04/15 07:22:45;;;;;;;11.88;7.13;;;;;;;5.46;70.73;100573.06;5096072;28;20035;-78
2021/04/15 07:25:29;;;;;;;10.02;6.30;;;;;;;5.68;69.97;100568.75;5095922;28;20474;-78
2021/04/15 07:28:36;;;;;;;13.05;7.20;;;;;;;5.36;69.69;100548.69;5096102;28;20085;-79
2021/04/15 07:31:36;;;;;;;11.43;7.22;;;;;;;5.75;69.47;100575.56;5095754;28;20038;-77
2021/04/15 07:34:23;;;;;;;9.52;5.88;;;;;;;5.32;70.58;100514.47;5077705;28;20023;-78
2021/04/15 07:37:16;;;;;;;11.73;7.13;;;;;;;5.99;70.54;100581.81;5077826;28;20358;-78
2021/04/15 07:40:00;;;;;;;9.70;6.40;;;;;;;6.06;69.15;100593.03;5095755;28;20077;-77
2021/04/15 07:42:47;;;;;;;12.43;7.25;;;;;;;6.21;69.30;100579.22;5077173;28;20032;-76
2021/04/15 07:45:19;;;;;;;8.57;5.55;;;;;;;6.19;68.54;100586.38;5095362;28;20465;-77
2021/04/15 07:48:02;;;;;;;12.32;7.10;;;;;;;6.50;68.45;100585.22;5095591;28;20039;-77
2021/04/15 07:50:55;;;;;;;10.70;7.38;;;;;;;6.77;67.18;100580.66;5095327;28;20036;-76
2021/04/15 07:54:08;;;;;;;10.93;7.28;;;;;;;6.86;66.68;100589.09;5077035;28;20111;-78
2021/04/15 07:56:50;;;;;;;10.50;6.38;;;;;;;6.42;68.05;100584.66;5094563;28;20043;-77
2021/04/15 07:59:24;;;;;;;12.50;6.80;;;;;;;6.05;69.08;100595.72;5077078;28;20028;-76
2021/04/15 08:02:09;;;;;;;10.05;7.07;;;;;;;6.28;67.57;100585.19;5095319;28;20043;-77
2021/04/15 08:05:01;;;;;;;7.68;4.00;;;;;;;6.08;69.51;100585.03;5077259;28;20485;-78
2021/04/15 08:08:04;;;;;;;9.23;6.35;;;;;;;6.59;66.34;100598.13;5077093;28;20035;-76
2021/04/15 08:10:51;;;;;;;11.35;6.47;;;;;;;6.77;64.69;100602.72;5077281;28;20114;-78
2021/04/15 08:13:32;;;;;;;10.00;6.88;;;;;;;6.72;64.15;100580.81;5094872;28;20032;-76
2021/04/15 08:16:16;;;;;;;12.57;6.95;;;;;;;6.65;66.03;100589.91;5095031;28;20051;-78
2021/04/15 08:18:54;;;;;;;5.05;3.67;;;;;;;6.11;67.39;100590.22;5094991;28;20032;-76
2021/04/15 08:21:48;;;;;;;9.18;6.75;;;;;;;5.97;68.26;100569.53;5094900;28;20038;-77
2021/04/15 08:24:29;;;;;;;9.07;6.25;;;;;;;6.27;66.62;100588.72;5076609;28;20046;-79
2021/04/15 08:27:13;;;;;;;9.18;4.57;;;;;;;6.18;67.59;100592.59;5095006;28;20035;-79
2021/04/15 08:29:53;;;;;;;11.90;6.72;;;;;;;6.22;67.29;100594.19;5094516;28;20024;-78
2021/04/15 08:32:36;;;;;;;10.90;6.75;;;;;;;6.09;66.78;100603.53;5094324;28;20381;-78
2021/04/15 08:35:14;;;;;;;8.43;6.28;;;;;;;6.07;66.90;100600.03;5076685;28;20028;-78
2021/04/15 08:38:17;;;;;;;12.55;6.90;;;;;;;6.24;68.23;100592.34;5094466;28;20039;-77
2021/04/15 08:41:20;;;;;;;10.50;5.55;;;;;;;6.05;67.97;100588.66;5094405;28;20036;-79
2021/04/15 08:44:24;;;;;;;9.98;6.43;;;;;;;6.25;67.41;100596.72;5025918;28;20044;-77
2021/04/15 08:46:58;;;;;;;8.82;5.70;;;;;;;6.24;66.57;100602.94;5076314;28;20044;-78
2021/04/15 08:49:31;;;;;;;9.88;6.07;;;;;;;6.07;67.05;100600.03;5094197;28;20058;-78
2021/04/15 08:52:05;;;;;;;8.00;5.28;;;;;;;5.84;68.13;100566.44;5094121;28;20032;-78
2021/04/15 08:54:45;;;;;;;10.55;6.70;;;;;;;6.08;68.71;100600.91;5094183;28;20039;-77
2021/04/15 08:57:40;;;;;;;9.13;5.85;;;;;;;6.03;67.11;100579.91;5094031;28;20035;-77
2021/04/15 09:00:29;;;;;;;8.98;5.93;;;;;;;5.93;67.80;100589.97;5094196;28;20032;-78
2021/04/15 09:03:26;;;;;;;8.30;5.80;;;;;;;6.12;67.80;100592.81;5094267;28;20039;-78
2021/04/15 09:06:10;;;;;;;8.52;5.38;;;;;;;6.14;67.90;100603.34;5092855;28;20048;-79
2021/04/15 09:09:01;;;;;;;8.15;5.28;;;;;;;5.90;70.45;100595.38;5076088;28;20362;-77
2021/04/15 09:11:52;;;;;;;6.65;4.45;;;;;;;5.86;69.86;100595.50;5093617;28;20102;-77
2021/04/15 09:14:26;;;;;;;9.82;6.28;;;;;;;6.11;70.06;100598.16;5093502;28;20477;-79
2021/04/15 09:17:02;;;;;;;10.05;6.05;;;;;;;6.04;68.46;100533.97;5094140;28;20075;-79
2021/04/15 09:19:47;;;;;;;6.45;4.43;;;;;;;6.35;68.57;100601.69;5075444;28;20077;-78
2021/04/15 09:22:46;;;;;;;10.00;6.07;;;;;;;6.18;68.04;100603.19;5093673;28;20027;-78
2021/04/15 09:25:20;;;;;;;7.28;5.38;;;;;;;5.92;70.20;100576.78;5075756;28;20127;-79
2021/04/15 09:27:53;;;;;;;10.48;6.03;;;;;;;6.54;69.34;100594.78;5093751;28;20103;-78
2021/04/15 09:30:37;;;;;;;10.50;5.15;;;;;;;6.54;68.36;100597.44;5093816;28;20112;-77
2021/04/15 09:33:21;;;;;;;;;;;;;;;6.80;66.37;100594.66;5094081;28;20027;-78
2021/04/15 09:36:09;;;;;;;8.10;5.15;;;;;;;6.89;65.64;100585.47;5093599;28;19911;-77
2021/04/15 09:39:05;;;;;;;8.55;5.75;;;;;;;6.83;65.85;100581.25;5076287;28;20082;-78
2021/04/15 09:41:34;;;;;;;8.55;5.40;;;;;;;6.86;66.89;100591.75;5096016;28;20035;-77
2021/04/15 09:44:41;;;;;;;9.70;5.80;;;;;;;7.00;63.14;100595.66;5094112;28;20028;-77
2021/04/15 09:47:44;;;;;;;8.23;5.47;;;;;;;6.84;65.73;100588.28;5060229;28;20043;-78
2021/04/15 09:50:26;;;;;;;7.78;5.70;;;;;;;6.78;65.70;100583.25;5094349;28;20102;-79
2021/04/15 09:53:08;;;;;;;8.10;5.13;;;;;;;6.54;68.07;100547.06;5078228;28;20095;-79
2021/04/15 09:55:42;;;;;;;8.25;5.30;;;;;;;6.73;67.97;100582.53;5095494;28;20132;-79
2021/04/15 09:58:20;;;;;;;8.80;5.72;;;;;;;6.95;63.68;100576.38;5094302;28;20024;-78
2021/04/15 10:00:50;;;;;;;7.72;5.63;;;;;;;6.96;62.96;100564.88;5095056;28;20403;-77
2021/04/15 10:03:36;;;;;;;8.15;5.45;;;;;;;7.36;62.58;100575.56;5093619;28;20144;-77
2021/04/15 10:06:16;;;;;;;7.03;4.97;;;;;;;7.50;60.20;100571.47;5075768;28;20487;-77
2021/04/15 10:08:54;;;;;;;7.15;5.10;;;;;;;7.27;61.21;100565.34;5093555;28;20081;-78
2021/04/15 10:11:37;;;;;;;7.70;5.25;;;;;;;7.15;61.61;100534.88;5075151;28;20032;-78
2021/04/15 10:14:25;;;;;;;9.27;5.32;;;;;;;7.58;62.16;100580.84;5093307;28;20032;-77
2021/04/15 10:17:11;;;;;;;9.05;5.35;;;;;;;7.18;62.12;100563.06;5093451;28;20052;-79
2021/04/15 10:19:55;;;;;;;7.05;4.80;;;;;;;7.18;63.17;100585.16;5077344;28;20393;-79
2021/04/15 10:22:35;;;;;;;7.03;5.00;;;;;;;6.97;63.41;100572.78;5097175;28;20126;-80
2021/04/15 10:25:29;;;;;;;10.43;5.50;;;;;;;6.83;64.72;100554.75;5079439;28;20028;-79
2021/04/15 10:28:30;;;;;;;7.07;4.60;;;;;;;7.07;65.50;100563.50;5097386;28;20080;-78
2021/04/15 10:31:23;;;;;;;9.75;5.00;;;;;;;7.17;65.80;100579.91;5097215;28;20028;-78
2021/04/15 10:33:54;;;;;;;5.20;3.20;;;;;;;6.87;64.60;100572.28;5079164;28;20044;-79
2021/04/15 10:36:38;;;;;;;6.72;4.60;;;;;;;7.15;63.42;100579.13;5096992;28;20034;-78
2021/04/15 10:39:22;;;;;;;;;;;;;;;7.07;63.43;100573.25;5097398;28;20107;-78
2021/04/15 10:42:06;;;;;;;;;;;;;;;7.30;62.88;100567.00;5097726;28;19916;-78
2021/04/15 10:44:37;;;;;;;8.68;4.80;;;;;;;7.27;64.62;100553.88;5096503;28;20277;-77
2021/04/15 10:47:41;;;;;;;7.60;5.00;;;;;;;7.11;64.94;100553.63;5096897;28;20031;-77
2021/04/15 10:50:15;;;;;;;7.40;3.90;;;;;;;7.31;64.44;100561.63;5066496;28;20079;-78
2021/04/15 10:52:41;;;;;;;8.73;4.93;;;;;;;7.76;62.61;100552.63;5078882;28;20358;-78
2021/04/15 10:55:32;;;;;;;5.97;3.47;;;;;;;7.33;63.61;100512.00;5096677;28;20102;-77
2021/04/15 10:58:33;;;;;;;6.53;3.90;;;;;;;7.87;62.52;100531.78;5096924;28;20028;-79
2021/04/15 11:01:27;;;;;;;6.25;3.35;;;;;;;7.45;62.71;100538.03;5096661;28;20075;-80
2021/04/15 11:03:55;;;;;;;6.05;3.33;;;;;;;7.06;66.41;100524.66;5096339;28;20020;-78
2021/04/15 11:06:41;;;;;;;6.32;3.95;;;;;;;7.23;66.07;100566.38;5078062;28;20063;-78
2021/04/15 11:09:28;;;;;;;5.85;3.90;;;;;;;7.31;63.39;100552.78;5078163;28;20028;-78
2021/04/15 11:12:04;;;;;;;4.50;2.88;;;;;;;7.24;62.25;100533.63;5096452;28;20050;-79
2021/04/15 11:14:46;;;;;;;5.57;3.17;;;;;;;7.84;59.67;100550.50;5077844;28;20042;-77
2021/04/15 11:17:18;;;;;;;4.97;3.22;;;;;;;7.99;59.78;100523.25;5096548;28;20048;-77
2021/04/15 11:19:45;;;;;;;5.95;3.35;;;;;;;8.19;57.80;100525.00;5095900;28;20416;-77
2021/04/15 11:22:30;;;;;;;5.78;3.28;;;;;;;8.09;59.60;100542.28;5096283;28;20043;-79
2021/04/15 11:25:33;;;;;;;3.13;2.05;;;;;;;7.73;60.27;100536.84;5077994;28;20035;-80
2021/04/15 11:28:07;;;;;;;5.07;2.72;;;;;;;7.38;61.92;100551.63;5079887;28;20469;-78
2021/04/15 11:30:54;;;;;;;4.20;2.60;;;;;;;7.30;65.33;100541.31;5094469;28;20097;-78
2021/04/15 11:33:32;;;;;;;3.75;2.22;;;;;;;7.10;63.25;100544.81;5095470;28;20036;-78
2021/04/15 11:36:10;;;;;;;4.88;2.60;;;;;;;7.44;61.66;100548.72;5095952;28;20028;-79
2021/04/15 11:38:35;;;;;;;4.85;2.45;;;;;;;7.45;61.01;100546.00;5095932;28;20106;-79
2021/04/15 11:41:12;;;;;;;2.45;1.55;;;;;;;7.16;60.70;100519.81;5095895;28;20492;-79
2021/04/15 11:43:38;;;;;;;3.35;2.13;;;;;;;7.34;59.77;100537.63;5095582;28;20024;-77
2021/04/15 11:46:26;;;;;;;3.97;2.47;;;;;;;7.33;60.44;100537.66;5077325;28;20044;-78
2021/04/15 11:49:07;;;;;;;3.40;2.15;;;;;;;7.13;58.53;100519.94;5077905;28;20084;-78
2021/04/15 11:51:38;;;;;;;4.25;2.20;;;;;;;7.58;58.87;100548.13;5077410;28;20445;-78
2021/04/15 11:54:12;;;;;;;3.25;1.65;;;;;;;7.36;59.61;100527.81;5095729;28;20027;-80
2021/04/15 11:56:38;;;;;;;4.93;2.35;;;;;;;7.46;58.47;100518.53;5077297;28;20127;-79
2021/04/15 11:59:15;;;;;;;5.75;2.20;;;;;;;7.37;58.98;100518.06;5060437;28;20032;-79
2021/04/15 12:01:40;;;;;;;2.80;1.70;;;;;;;7.32;60.37;100541.25;5095049;28;20469;-76
2021/04/15 12:04:08;;;;;;;2.88;1.58;;;;;;;7.11;59.93;100543.00;5077366;28;20043;-78
2021/04/15 12:06:40;;;;;;;4.28;1.90;;;;;;;7.24;60.75;100538.94;5060339;28;20093;-77
2021/04/15 12:09:11;;;;;;;2.70;1.80;;;;;;;7.12;59.17;100534.13;5095360;28;20036;-77
2021/04/15 12:11:48;;;;;;;4.10;1.58;;;;;;;7.18;60.36;100537.41;5095116;28;20028;-78
2021/04/15 12:14:18;;;;;;;2.97;1.95;;;;;;;7.13;60.42;100530.53;5095146;28;20476;-80
2021/04/15 12:17:02;;;;;;;2.80;1.58;;;;;;;6.93;60.18;100533.16;5076920;28;20067;-79
2021/04/15 12:19:54;;;;;;;3.60;2.05;;;;;;;7.26;58.37;100533.56;5094845;28;20032;-77
2021/04/15 12:22:37;;;;;;;2.85;1.77;;;;;;;7.23;59.22;100536.34;5063569;28;20047;-79